sensor_id;sensor_type;location;lat;lon;timestamp;pressure;altitude;pressure_sealevel;temperature;humidity
43683;BME280;29285;52.128;21.060;2023-04-26T00:04:16;99534.59;;;8.29;100.00
43683;BME280;29285;52.128;21.060;2023-04-26T00:09:19;99542.01;;;8.21;100.00
43683;BME280;29285;52.128;21.060;2023-04-26T00:14:21;99548.69;;;8.14;100.00
43683;BME280;29285;52.128;21.060;2023-04-26T00:19:22;99548.81;;;8.07;100.00
43683;BME280;29285;52.128;21.060;2023-04-26T00:24:24;99552.36;;;8.02;100.00
43683;BME280;29285;52.128;21.060;2023-04-26T00:29:25;99561.10;;;7.97;100.00
43683;BME280;29285;52.128;21.060;2023-04-26T00:34:34;99561.38;;;7.91;100.00
43683;BME280;29285;52.128;21.060;2023-04-26T00:39:35;99566.83;;;7.85;100.00
43683;BME280;29285;52.128;21.060;2023-04-26T00:44:36;99578.91;;;7.73;100.00
43683;BME280;29285;52.128;21.060;2023-04-26T00:49:42;99577.83;;;7.67;100.00
43683;BME280;29285;52.128;21.060;2023-04-26T00:54:44;99580.33;;;7.71;100.00
43683;BME280;29285;52.128;21.060;2023-04-26T00:59:45;99584.41;;;7.87;100.00
43683;BME280;29285;52.128;21.060;2023-04-26T01:04:46;99592.02;;;7.96;100.00
43683;BME280;29285;52.128;21.060;2023-04-26T01:09:48;99593.19;;;7.99;100.00
43683;BME280;29285;52.128;21.060;2023-04-26T01:14:50;99596.73;;;8.03;100.00
43683;BME280;29285;52.128;21.060;2023-04-26T01:19:51;99602.23;;;8.05;100.00
43683;BME280;29285;52.128;21.060;2023-04-26T01:24:53;99609.52;;;8.04;100.00
43683;BME280;29285;52.128;21.060;2023-04-26T01:29:55;99613.47;;;8.05;100.00
43683;BME280;29285;52.128;21.060;2023-04-26T01:34:56;99612.69;;;8.10;100.00
43683;BME280;29285;52.128;21.060;2023-04-26T01:39:58;99612.47;;;8.14;100.00
43683;BME280;29285;52.128;21.060;2023-04-26T01:44:59;99607.94;;;8.15;100.00
43683;BME280;29285;52.128;21.060;2023-04-26T01:50:00;99611.41;;;8.14;100.00
43683;BME280;29285;52.128;21.060;2023-04-26T01:55:01;99613.20;;;8.10;100.00
43683;BME280;29285;52.128;21.060;2023-04-26T02:00:02;99616.23;;;8.05;100.00
43683;BME280;29285;52.128;21.060;2023-04-26T02:05:04;99616.76;;;8.04;100.00
43683;BME280;29285;52.128;21.060;2023-04-26T02:10:06;99616.99;;;8.11;100.00
43683;BME280;29285;52.128;21.060;2023-04-26T02:15:08;99618.49;;;8.14;100.00
43683;BME280;29285;52.128;21.060;2023-04-26T02:20:10;99619.49;;;8.16;100.00
43683;BME280;29285;52.128;21.060;2023-04-26T02:25:11;99625.53;;;8.17;100.00
43683;BME280;29285;52.128;21.060;2023-04-26T02:30:12;99625.53;;;8.17;100.00
43683;BME280;29285;52.128;21.060;2023-04-26T02:35:14;99624.42;;;8.11;100.00
43683;BME280;29285;52.128;21.060;2023-04-26T02:40:15;99623.57;;;8.01;100.00
43683;BME280;29285;52.128;21.060;2023-04-26T02:45:16;99622.43;;;7.96;100.00
43683;BME280;29285;52.128;21.060;2023-04-26T02:50:17;99620.23;;;7.93;100.00
43683;BME280;29285;52.128;21.060;2023-04-26T02:55:18;99626.34;;;7.90;100.00
43683;BME280;29285;52.128;21.060;2023-04-26T03:00:20;99627.19;;;7.89;100.00
43683;BME280;29285;52.128;21.060;2023-04-26T03:05:22;99629.52;;;7.85;100.00
43683;BME280;29285;52.128;21.060;2023-04-26T03:10:23;99634.65;;;7.77;100.00
43683;BME280;29285;52.128;21.060;2023-04-26T03:15:24;99634.29;;;7.66;100.00
43683;BME280;29285;52.128;21.060;2023-04-26T03:20:24;99633.19;;;7.59;100.00
43683;BME280;29285;52.128;21.060;2023-04-26T03:25:26;99636.60;;;7.51;100.00
43683;BME280;29285;52.128;21.060;2023-04-26T03:30:27;99637.01;;;7.46;100.00
43683;BME280;29285;52.128;21.060;2023-04-26T03:35:28;99645.27;;;7.35;100.00
43683;BME280;29285;52.128;21.060;2023-04-26T03:40:29;99642.81;;;7.25;100.00
43683;BME280;29285;52.128;21.060;2023-04-26T03:45:30;99647.23;;;7.17;100.00
43683;BME280;29285;52.128;21.060;2023-04-26T03:50:31;99649.38;;;7.12;100.00
43683;BME280;29285;52.128;21.060;2023-04-26T03:55:33;99657.77;;;7.02;100.00
43683;BME280;29285;52.128;21.060;2023-04-26T04:00:36;99658.75;;;6.92;100.00
43683;BME280;29285;52.128;21.060;2023-04-26T04:05:37;99661.77;;;6.84;100.00
43683;BME280;29285;52.128;21.060;2023-04-26T04:10:39;99663.04;;;6.79;100.00
43683;BME280;29285;52.128;21.060;2023-04-26T04:15:39;99663.23;;;6.76;100.00
43683;BME280;29285;52.128;21.060;2023-04-26T04:20:41;99670.84;;;6.75;100.00
43683;BME280;29285;52.128;21.060;2023-04-26T04:25:42;99672.63;;;6.70;100.00
43683;BME280;29285;52.128;21.060;2023-04-26T04:30:44;99671.27;;;6.69;100.00
43683;BME280;29285;52.128;21.060;2023-04-26T04:35:46;99674.99;;;6.73;100.00
43683;BME280;29285;52.128;21.060;2023-04-26T04:40:48;99676.66;;;6.80;100.00
43683;BME280;29285;52.128;21.060;2023-04-26T04:45:52;99684.27;;;6.77;100.00
43683;BME280;29285;52.128;21.060;2023-04-26T04:50:53;99692.77;;;6.70;100.00
43683;BME280;29285;52.128;21.060;2023-04-26T04:55:55;99698.36;;;6.65;100.00
43683;BME280;29285;52.128;21.060;2023-04-26T05:00:56;99706.95;;;6.68;100.00
43683;BME280;29285;52.128;21.060;2023-04-26T05:06:00;99709.23;;;6.65;100.00
43683;BME280;29285;52.128;21.060;2023-04-26T05:11:02;99711.98;;;6.64;100.00
43683;BME280;29285;52.128;21.060;2023-04-26T05:16:03;99718.55;;;6.63;100.00
43683;BME280;29285;52.128;21.060;2023-04-26T05:21:05;99717.34;;;6.65;100.00
43683;BME280;29285;52.128;21.060;2023-04-26T05:26:06;99725.73;;;6.68;100.00
43683;BME280;29285;52.128;21.060;2023-04-26T05:31:10;99731.10;;;6.65;100.00
43683;BME280;29285;52.128;21.060;2023-04-26T05:36:11;99742.05;;;6.57;100.00
43683;BME280;29285;52.128;21.060;2023-04-26T05:41:13;99743.80;;;6.53;100.00
43683;BME280;29285;52.128;21.060;2023-04-26T05:46:17;99744.86;;;6.50;100.00
43683;BME280;29285;52.128;21.060;2023-04-26T05:51:19;99747.80;;;6.48;100.00
43683;BME280;29285;52.128;21.060;2023-04-26T05:56:20;99746.04;;;6.52;100.00
43683;BME280;29285;52.128;21.060;2023-04-26T06:01:21;99750.16;;;6.55;100.00
43683;BME280;29285;52.128;21.060;2023-04-26T06:06:22;99749.42;;;6.60;100.00
43683;BME280;29285;52.128;21.060;2023-04-26T06:11:23;99745.20;;;6.70;100.00
43683;BME280;29285;52.128;21.060;2023-04-26T06:16:25;99753.93;;;6.76;100.00
43683;BME280;29285;52.128;21.060;2023-04-26T06:21:26;99754.45;;;6.93;100.00
43683;BME280;29285;52.128;21.060;2023-04-26T06:26:27;99749.07;;;7.12;100.00
43683;BME280;29285;52.128;21.060;2023-04-26T06:31:29;99751.54;;;7.23;100.00
43683;BME280;29285;52.128;21.060;2023-04-26T06:36:30;99751.38;;;7.37;100.00
43683;BME280;29285;52.128;21.060;2023-04-26T06:41:32;99756.19;;;7.53;100.00
43683;BME280;29285;52.128;21.060;2023-04-26T06:46:33;99756.36;;;7.65;100.00
43683;BME280;29285;52.128;21.060;2023-04-26T06:51:35;99764.13;;;7.80;100.00
43683;BME280;29285;52.128;21.060;2023-04-26T06:56:36;99749.48;;;8.01;100.00
43683;BME280;29285;52.128;21.060;2023-04-26T07:01:37;99753.83;;;8.23;100.00
43683;BME280;29285;52.128;21.060;2023-04-26T07:06:39;99754.62;;;8.27;100.00
43683;BME280;29285;52.128;21.060;2023-04-26T07:11:45;99756.92;;;8.24;100.00
43683;BME280;29285;52.128;21.060;2023-04-26T07:16:47;99765.00;;;8.27;100.00
43683;BME280;29285;52.128;21.060;2023-04-26T07:21:48;99767.63;;;8.36;100.00
43683;BME280;29285;52.128;21.060;2023-04-26T07:26:49;99766.08;;;8.47;100.00
43683;BME280;29285;52.128;21.060;2023-04-26T07:31:51;99768.20;;;8.55;100.00
43683;BME280;29285;52.128;21.060;2023-04-26T07:36:52;99768.64;;;8.61;100.00
43683;BME280;29285;52.128;21.060;2023-04-26T07:41:54;99772.50;;;8.68;100.00
43683;BME280;29285;52.128;21.060;2023-04-26T07:46:55;99772.08;;;8.82;100.00
43683;BME280;29285;52.128;21.060;2023-04-26T07:51:56;99780.42;;;8.89;100.00
43683;BME280;29285;52.128;21.060;2023-04-26T07:57:01;99786.67;;;8.98;100.00
43683;BME280;29285;52.128;21.060;2023-04-26T08:02:03;99795.20;;;8.86;100.00
43683;BME280;29285;52.128;21.060;2023-04-26T08:07:04;99791.78;;;8.93;100.00
43683;BME280;29285;52.128;21.060;2023-04-26T08:12:05;99792.75;;;8.97;100.00
43683;BME280;29285;52.128;21.060;2023-04-26T08:17:07;99801.02;;;8.89;100.00
43683;BME280;29285;52.128;21.060;2023-04-26T08:22:11;99791.11;;;8.91;100.00
43683;BME280;29285;52.128;21.060;2023-04-26T08:27:13;99794.02;;;8.93;100.00
43683;BME280;29285;52.128;21.060;2023-04-26T08:32:14;99790.54;;;8.84;100.00
43683;BME280;29285;52.128;21.060;2023-04-26T08:37:15;99798.52;;;8.73;100.00
43683;BME280;29285;52.128;21.060;2023-04-26T08:42:17;99803.36;;;8.50;100.00
43683;BME280;29285;52.128;21.060;2023-04-26T08:47:21;99816.02;;;8.36;100.00
43683;BME280;29285;52.128;21.060;2023-04-26T08:52:27;99810.33;;;8.23;100.00
43683;BME280;29285;52.128;21.060;2023-04-26T08:57:31;99812.80;;;8.20;100.00
43683;BME280;29285;52.128;21.060;2023-04-26T09:02:34;99821.09;;;8.32;100.00
43683;BME280;29285;52.128;21.060;2023-04-26T09:07:44;99815.49;;;8.37;100.00
43683;BME280;29285;52.128;21.060;2023-04-26T09:12:46;99821.20;;;8.36;100.00
43683;BME280;29285;52.128;21.060;2023-04-26T09:17:47;99820.36;;;8.46;100.00
43683;BME280;29285;52.128;21.060;2023-04-26T09:22:51;99819.91;;;8.66;100.00
43683;BME280;29285;52.128;21.060;2023-04-26T09:27:53;99827.22;;;8.63;100.00
43683;BME280;29285;52.128;21.060;2023-04-26T09:33:01;99839.02;;;8.61;100.00
43683;BME280;29285;52.128;21.060;2023-04-26T09:38:16;99840.77;;;8.70;100.00
43683;BME280;29285;52.128;21.060;2023-04-26T09:43:19;99840.02;;;8.63;100.00
43683;BME280;29285;52.128;21.060;2023-04-26T09:48:25;99842.73;;;8.54;100.00
43683;BME280;29285;52.128;21.060;2023-04-26T09:53:36;99847.71;;;8.44;100.00
43683;BME280;29285;52.128;21.060;2023-04-26T09:58:57;99839.16;;;8.50;100.00
43683;BME280;29285;52.128;21.060;2023-04-26T10:04:00;99835.91;;;8.71;100.00
43683;BME280;29285;52.128;21.060;2023-04-26T10:09:01;99839.23;;;8.99;100.00
43683;BME280;29285;52.128;21.060;2023-04-26T10:14:05;99838.30;;;9.04;100.00
43683;BME280;29285;52.128;21.060;2023-04-26T10:19:06;99838.39;;;9.18;100.00
43683;BME280;29285;52.128;21.060;2023-04-26T10:24:09;99834.35;;;9.31;100.00
43683;BME280;29285;52.128;21.060;2023-04-26T10:29:10;99839.98;;;9.35;100.00
43683;BME280;29285;52.128;21.060;2023-04-26T10:34:21;99843.11;;;9.25;100.00
43683;BME280;29285;52.128;21.060;2023-04-26T10:39:22;99840.98;;;9.47;100.00
43683;BME280;29285;52.128;21.060;2023-04-26T10:44:45;99831.90;;;9.85;99.95
43683;BME280;29285;52.128;21.060;2023-04-26T10:49:46;99838.21;;;10.22;99.19
43683;BME280;29285;52.128;21.060;2023-04-26T10:54:53;99833.95;;;10.43;97.47
43683;BME280;29285;52.128;21.060;2023-04-26T11:05:34;99859.81;;;9.84;93.52
43683;BME280;29285;52.128;21.060;2023-04-26T11:10:39;99870.70;;;9.40;91.38
43683;BME280;29285;52.128;21.060;2023-04-26T11:15:41;99877.02;;;9.26;90.68
43683;BME280;29285;52.128;21.060;2023-04-26T11:20:43;99875.75;;;9.29;90.43
43683;BME280;29285;52.128;21.060;2023-04-26T11:25:44;99868.53;;;9.46;90.45
43683;BME280;29285;52.128;21.060;2023-04-26T11:30:45;99887.31;;;9.41;89.87
43683;BME280;29285;52.128;21.060;2023-04-26T11:35:52;99899.11;;;9.30;89.16
43683;BME280;29285;52.128;21.060;2023-04-26T11:40:59;99898.07;;;9.20;88.30
43683;BME280;29285;52.128;21.060;2023-04-26T11:46:01;99898.48;;;9.16;87.51
43683;BME280;29285;52.128;21.060;2023-04-26T11:51:04;99897.92;;;9.28;87.39
43683;BME280;29285;52.128;21.060;2023-04-26T11:56:16;99889.86;;;9.45;87.54
43683;BME280;29285;52.128;21.060;2023-04-26T12:01:26;99899.17;;;9.37;86.97
43683;BME280;29285;52.128;21.060;2023-04-26T12:06:34;99900.58;;;9.25;86.20
43683;BME280;29285;52.128;21.060;2023-04-26T12:11:41;99903.98;;;9.28;85.98
43683;BME280;29285;52.128;21.060;2023-04-26T12:16:47;99911.09;;;9.28;85.49
43683;BME280;29285;52.128;21.060;2023-04-26T12:21:48;99918.63;;;9.23;84.85
43683;BME280;29285;52.128;21.060;2023-04-26T12:26:50;99925.77;;;9.20;84.34
43683;BME280;29285;52.128;21.060;2023-04-26T12:31:52;99920.05;;;9.21;83.71
43683;BME280;29285;52.128;21.060;2023-04-26T12:36:53;99925.56;;;9.42;83.93
43683;BME280;29285;52.128;21.060;2023-04-26T12:41:55;99920.33;;;9.91;84.38
43683;BME280;29285;52.128;21.060;2023-04-26T12:46:56;99923.67;;;9.97;83.73
43683;BME280;29285;52.128;21.060;2023-04-26T12:51:57;99932.30;;;9.90;82.94
43683;BME280;29285;52.128;21.060;2023-04-26T12:56:58;99932.52;;;9.88;82.34
43683;BME280;29285;52.128;21.060;2023-04-26T13:02:00;99939.52;;;9.93;81.80
43683;BME280;29285;52.128;21.060;2023-04-26T13:07:04;99950.86;;;9.89;81.36
43683;BME280;29285;52.128;21.060;2023-04-26T13:12:05;99947.78;;;9.78;80.52
43683;BME280;29285;52.128;21.060;2023-04-26T13:17:07;99955.16;;;9.62;79.89
43683;BME280;29285;52.128;21.060;2023-04-26T13:22:12;99953.65;;;9.40;79.31
43683;BME280;29285;52.128;21.060;2023-04-26T13:27:13;99964.59;;;9.28;78.84
43683;BME280;29285;52.128;21.060;2023-04-26T13:32:14;99964.13;;;9.13;78.29
43683;BME280;29285;52.128;21.060;2023-04-26T13:37:15;99963.72;;;9.06;77.85
43683;BME280;29285;52.128;21.060;2023-04-26T13:42:18;99967.96;;;9.11;77.80
43683;BME280;29285;52.128;21.060;2023-04-26T13:47:20;99971.52;;;9.17;77.66
43683;BME280;29285;52.128;21.060;2023-04-26T13:52:21;99975.28;;;9.20;77.50
43683;BME280;29285;52.128;21.060;2023-04-26T13:57:22;99975.89;;;9.25;77.44
43683;BME280;29285;52.128;21.060;2023-04-26T14:02:23;99975.63;;;9.30;76.88
43683;BME280;29285;52.128;21.060;2023-04-26T14:07:24;99977.34;;;9.31;76.47
43683;BME280;29285;52.128;21.060;2023-04-26T14:12:25;99993.64;;;9.29;76.01
43683;BME280;29285;52.128;21.060;2023-04-26T14:17:27;99994.06;;;9.25;75.39
43683;BME280;29285;52.128;21.060;2023-04-26T14:22:29;99994.03;;;9.27;75.11
43683;BME280;29285;52.128;21.060;2023-04-26T14:27:30;100000.94;;;9.28;74.85
43683;BME280;29285;52.128;21.060;2023-04-26T14:32:31;100001.26;;;9.30;74.63
43683;BME280;29285;52.128;21.060;2023-04-26T14:37:33;100013.30;;;9.23;74.24
43683;BME280;29285;52.128;21.060;2023-04-26T14:42:34;100010.20;;;9.11;73.69
43683;BME280;29285;52.128;21.060;2023-04-26T14:47:36;100020.73;;;9.00;73.03
43683;BME280;29285;52.128;21.060;2023-04-26T14:52:37;100027.57;;;8.95;72.65
43683;BME280;29285;52.128;21.060;2023-04-26T14:57:39;100028.72;;;8.99;72.64
43683;BME280;29285;52.128;21.060;2023-04-26T15:02:43;100030.98;;;8.99;72.59
43683;BME280;29285;52.128;21.060;2023-04-26T15:07:45;100030.77;;;9.00;72.49
43683;BME280;29285;52.128;21.060;2023-04-26T15:12:46;100039.95;;;8.99;72.34
43683;BME280;29285;52.128;21.060;2023-04-26T15:17:48;100041.02;;;8.97;72.28
43683;BME280;29285;52.128;21.060;2023-04-26T15:22:49;100045.02;;;8.96;72.10
43683;BME280;29285;52.128;21.060;2023-04-26T15:27:50;100047.13;;;8.94;72.00
43683;BME280;29285;52.128;21.060;2023-04-26T15:32:52;100050.12;;;8.90;72.13
43683;BME280;29285;52.128;21.060;2023-04-26T15:37:53;100058.39;;;8.93;72.14
43683;BME280;29285;52.128;21.060;2023-04-26T15:42:54;100052.78;;;9.10;72.62
43683;BME280;29285;52.128;21.060;2023-04-26T15:47:56;100051.05;;;9.23;73.26
43683;BME280;29285;52.128;21.060;2023-04-26T15:52:57;100048.50;;;9.41;73.80
43683;BME280;29285;52.128;21.060;2023-04-26T15:57:58;100047.89;;;9.48;74.04
43683;BME280;29285;52.128;21.060;2023-04-26T16:03:00;100054.84;;;9.47;74.04
43683;BME280;29285;52.128;21.060;2023-04-26T16:08:01;100049.41;;;9.39;73.95
43683;BME280;29285;52.128;21.060;2023-04-26T16:13:03;100046.94;;;9.42;74.04
43683;BME280;29285;52.128;21.060;2023-04-26T16:18:05;100055.69;;;9.58;74.44
43683;BME280;29285;52.128;21.060;2023-04-26T16:23:05;100059.02;;;9.67;74.54
43683;BME280;29285;52.128;21.060;2023-04-26T16:28:08;100060.17;;;9.80;74.83
43683;BME280;29285;52.128;21.060;2023-04-26T16:33:10;100064.33;;;9.91;75.09
43683;BME280;29285;52.128;21.060;2023-04-26T16:38:11;100069.38;;;9.78;74.48
43683;BME280;29285;52.128;21.060;2023-04-26T16:43:12;100072.24;;;9.62;73.82
43683;BME280;29285;52.128;21.060;2023-04-26T16:48:14;100071.29;;;9.58;73.76
43683;BME280;29285;52.128;21.060;2023-04-26T16:53:15;100074.34;;;9.61;73.78
43683;BME280;29285;52.128;21.060;2023-04-26T16:58:17;100079.29;;;9.66;74.01
43683;BME280;29285;52.128;21.060;2023-04-26T17:03:19;100081.70;;;9.56;73.79
43683;BME280;29285;52.128;21.060;2023-04-26T17:08:24;100084.91;;;9.51;73.46
43683;BME280;29285;52.128;21.060;2023-04-26T17:13:28;100084.28;;;9.46;73.51
43683;BME280;29285;52.128;21.060;2023-04-26T17:18:33;100089.70;;;9.42;73.35
43683;BME280;29285;52.128;21.060;2023-04-26T17:23:37;100097.04;;;9.38;73.27
43683;BME280;29285;52.128;21.060;2023-04-26T17:28:38;100103.20;;;9.31;73.11
43683;BME280;29285;52.128;21.060;2023-04-26T17:33:45;100106.50;;;9.30;73.10
43683;BME280;29285;52.128;21.060;2023-04-26T17:38:46;100104.67;;;9.25;72.95
43683;BME280;29285;52.128;21.060;2023-04-26T17:43:48;100109.39;;;9.22;72.99
43683;BME280;29285;52.128;21.060;2023-04-26T17:48:49;100110.25;;;9.22;73.12
43683;BME280;29285;52.128;21.060;2023-04-26T17:53:50;100119.27;;;9.20;73.27
43683;BME280;29285;52.128;21.060;2023-04-26T17:58:51;100132.46;;;9.19;73.10
43683;BME280;29285;52.128;21.060;2023-04-26T18:03:52;100135.11;;;9.27;73.41
43683;BME280;29285;52.128;21.060;2023-04-26T18:08:54;100138.61;;;9.24;73.53
43683;BME280;29285;52.128;21.060;2023-04-26T18:13:55;100138.77;;;9.26;73.64
43683;BME280;29285;52.128;21.060;2023-04-26T18:18:56;100144.33;;;9.24;73.82
43683;BME280;29285;52.128;21.060;2023-04-26T18:24:06;100148.71;;;9.20;73.63
43683;BME280;29285;52.128;21.060;2023-04-26T18:29:08;100154.84;;;9.14;73.89
43683;BME280;29285;52.128;21.060;2023-04-26T18:34:16;100158.93;;;9.05;73.71
43683;BME280;29285;52.128;21.060;2023-04-26T18:39:18;100161.31;;;8.94;73.75
43683;BME280;29285;52.128;21.060;2023-04-26T18:44:19;100165.70;;;8.90;73.94
43683;BME280;29285;52.128;21.060;2023-04-26T18:49:21;100169.04;;;8.84;74.14
43683;BME280;29285;52.128;21.060;2023-04-26T18:54:23;100168.52;;;8.68;74.03
43683;BME280;29285;52.128;21.060;2023-04-26T18:59:24;100176.96;;;8.55;74.06
43683;BME280;29285;52.128;21.060;2023-04-26T19:04:29;100182.20;;;8.47;74.26
43683;BME280;29285;52.128;21.060;2023-04-26T19:09:30;100185.86;;;8.44;74.55
43683;BME280;29285;52.128;21.060;2023-04-26T19:14:34;100191.94;;;8.41;74.89
43683;BME280;29285;52.128;21.060;2023-04-26T19:19:35;100191.30;;;8.35;75.05
43683;BME280;29285;52.128;21.060;2023-04-26T19:24:36;100191.87;;;8.29;75.08
43683;BME280;29285;52.128;21.060;2023-04-26T19:29:37;100194.17;;;8.24;75.35
43683;BME280;29285;52.128;21.060;2023-04-26T19:34:38;100195.23;;;8.22;75.65
43683;BME280;29285;52.128;21.060;2023-04-26T19:39:41;100194.73;;;8.18;75.89
43683;BME280;29285;52.128;21.060;2023-04-26T19:44:45;100202.83;;;7.99;75.86
43683;BME280;29285;52.128;21.060;2023-04-26T19:49:46;100206.08;;;7.80;75.67
43683;BME280;29285;52.128;21.060;2023-04-26T19:54:47;100207.66;;;7.75;75.82
43683;BME280;29285;52.128;21.060;2023-04-26T19:59:48;100204.13;;;7.60;75.81
43683;BME280;29285;52.128;21.060;2023-04-26T20:04:50;100205.91;;;7.50;75.75
43683;BME280;29285;52.128;21.060;2023-04-26T20:09:52;100206.42;;;7.50;76.09
43683;BME280;29285;52.128;21.060;2023-04-26T20:14:53;100211.30;;;7.42;76.15
43683;BME280;29285;52.128;21.060;2023-04-26T20:19:54;100209.09;;;7.34;76.17
43683;BME280;29285;52.128;21.060;2023-04-26T20:24:56;100212.20;;;7.34;76.48
43683;BME280;29285;52.128;21.060;2023-04-26T20:29:57;100213.98;;;7.23;76.53
43683;BME280;29285;52.128;21.060;2023-04-26T20:34:58;100218.45;;;7.24;76.67
43683;BME280;29285;52.128;21.060;2023-04-26T20:40:04;100219.48;;;7.27;76.95
43683;BME280;29285;52.128;21.060;2023-04-26T20:45:06;100220.51;;;7.28;77.38
43683;BME280;29285;52.128;21.060;2023-04-26T20:50:08;100228.61;;;7.28;77.47
43683;BME280;29285;52.128;21.060;2023-04-26T20:55:09;100224.81;;;7.29;77.82
43683;BME280;29285;52.128;21.060;2023-04-26T21:00:15;100227.23;;;7.27;77.79
43683;BME280;29285;52.128;21.060;2023-04-26T21:05:20;100231.04;;;7.30;78.01
43683;BME280;29285;52.128;21.060;2023-04-26T21:10:24;100232.40;;;7.31;78.35
43683;BME280;29285;52.128;21.060;2023-04-26T21:15:39;100237.23;;;7.32;78.42
43683;BME280;29285;52.128;21.060;2023-04-26T21:20:41;100241.55;;;7.29;78.65
43683;BME280;29285;52.128;21.060;2023-04-26T21:25:46;100247.42;;;7.27;78.66
43683;BME280;29285;52.128;21.060;2023-04-26T21:31:00;100249.16;;;7.25;78.70
43683;BME280;29285;52.128;21.060;2023-04-26T21:36:04;100250.91;;;7.21;78.96
43683;BME280;29285;52.128;21.060;2023-04-26T21:41:05;100255.40;;;7.17;79.11
43683;BME280;29285;52.128;21.060;2023-04-26T21:46:06;100261.98;;;7.09;79.07
43683;BME280;29285;52.128;21.060;2023-04-26T21:51:07;100264.40;;;7.08;79.37
43683;BME280;29285;52.128;21.060;2023-04-26T21:56:08;100274.43;;;7.01;79.47
43683;BME280;29285;52.128;21.060;2023-04-26T22:01:12;100279.27;;;6.95;79.51
43683;BME280;29285;52.128;21.060;2023-04-26T22:06:13;100284.78;;;6.97;79.78
43683;BME280;29285;52.128;21.060;2023-04-26T22:11:14;100285.13;;;6.95;80.03
43683;BME280;29285;52.128;21.060;2023-04-26T22:16:16;100287.39;;;6.87;80.12
43683;BME280;29285;52.128;21.060;2023-04-26T22:21:17;100294.63;;;6.82;80.13
43683;BME280;29285;52.128;21.060;2023-04-26T22:26:18;100297.73;;;6.84;80.55
43683;BME280;29285;52.128;21.060;2023-04-26T22:31:19;100301.70;;;6.81;80.72
43683;BME280;29285;52.128;21.060;2023-04-26T22:36:21;100306.03;;;6.79;80.86
43683;BME280;29285;52.128;21.060;2023-04-26T22:41:22;100303.61;;;6.72;80.98
43683;BME280;29285;52.128;21.060;2023-04-26T22:46:23;100308.62;;;6.65;81.22
43683;BME280;29285;52.128;21.060;2023-04-26T22:51:24;100309.99;;;6.67;81.42
43683;BME280;29285;52.128;21.060;2023-04-26T22:56:27;100320.16;;;6.65;81.71
43683;BME280;29285;52.128;21.060;2023-04-26T23:01:28;100330.00;;;6.62;81.81
43683;BME280;29285;52.128;21.060;2023-04-26T23:06:30;100333.79;;;6.58;81.88
43683;BME280;29285;52.128;21.060;2023-04-26T23:11:35;100341.53;;;6.49;82.07
43683;BME280;29285;52.128;21.060;2023-04-26T23:16:36;100343.60;;;6.46;82.21
43683;BME280;29285;52.128;21.060;2023-04-26T23:21:38;100347.56;;;6.46;82.57
43683;BME280;29285;52.128;21.060;2023-04-26T23:26:39;100350.31;;;6.38;82.67
43683;BME280;29285;52.128;21.060;2023-04-26T23:31:40;100351.68;;;6.29;82.81
43683;BME280;29285;52.128;21.060;2023-04-26T23:36:41;100357.02;;;6.21;82.88
43683;BME280;29285;52.128;21.060;2023-04-26T23:41:42;100358.02;;;6.12;82.95
43683;BME280;29285;52.128;21.060;2023-04-26T23:46:43;100357.79;;;6.03;83.31
43683;BME280;29285;52.128;21.060;2023-04-26T23:51:45;100360.69;;;5.95;83.39
43683;BME280;29285;52.128;21.060;2023-04-26T23:56:53;100361.86;;;5.87;83.52
